sensor_id;sensor_type;location;lat;lon;timestamp;P1;durP1;ratioP1;P2;durP2;ratioP2
20118;SDS011;10220;42.716;23.306;2023-04-15T00:01:46;3.97;;;2.47;;
20118;SDS011;10220;42.716;23.306;2023-04-15T00:04:12;2.87;;;2.30;;
20118;SDS011;10220;42.716;23.306;2023-04-15T00:06:37;8.97;;;2.40;;
20118;SDS011;10220;42.716;23.306;2023-04-15T00:09:04;3.97;;;1.90;;
20118;SDS011;10220;42.716;23.306;2023-04-15T00:11:29;4.23;;;2.53;;
20118;SDS011;10220;42.716;23.306;2023-04-15T00:13:55;5.67;;;2.87;;
20118;SDS011;10220;42.716;23.306;2023-04-15T00:16:20;5.07;;;2.37;;
20118;SDS011;10220;42.716;23.306;2023-04-15T00:18:46;2.60;;;1.37;;
20118;SDS011;10220;42.716;23.306;2023-04-15T00:21:11;6.23;;;3.30;;
20118;SDS011;10220;42.716;23.306;2023-04-15T00:23:37;1.95;;;1.75;;
20118;SDS011;10220;42.716;23.306;2023-04-15T00:26:02;5.63;;;3.50;;
20118;SDS011;10220;42.716;23.306;2023-04-15T00:28:28;5.47;;;2.53;;
20118;SDS011;10220;42.716;23.306;2023-04-15T00:30:53;6.63;;;2.45;;
20118;SDS011;10220;42.716;23.306;2023-04-15T00:33:19;7.00;;;3.17;;
20118;SDS011;10220;42.716;23.306;2023-04-15T00:35:44;5.40;;;3.13;;
20118;SDS011;10220;42.716;23.306;2023-04-15T00:38:09;4.18;;;1.90;;
20118;SDS011;10220;42.716;23.306;2023-04-15T00:40:35;15.45;;;8.43;;
20118;SDS011;10220;42.716;23.306;2023-04-15T00:43:01;26.10;;;13.95;;
20118;SDS011;10220;42.716;23.306;2023-04-15T00:45:28;39.22;;;18.15;;
20118;SDS011;10220;42.716;23.306;2023-04-15T00:47:54;58.28;;;30.17;;
20118;SDS011;10220;42.716;23.306;2023-04-15T00:50:20;11.55;;;6.38;;
20118;SDS011;10220;42.716;23.306;2023-04-15T00:52:46;2.75;;;2.40;;
20118;SDS011;10220;42.716;23.306;2023-04-15T00:55:11;3.25;;;2.13;;
20118;SDS011;10220;42.716;23.306;2023-04-15T00:57:38;8.43;;;3.30;;
20118;SDS011;10220;42.716;23.306;2023-04-15T01:00:04;14.48;;;6.32;;
20118;SDS011;10220;42.716;23.306;2023-04-15T01:02:33;12.50;;;4.32;;
20118;SDS011;10220;42.716;23.306;2023-04-15T01:04:59;12.85;;;5.88;;
20118;SDS011;10220;42.716;23.306;2023-04-15T01:07:24;23.95;;;12.63;;
20118;SDS011;10220;42.716;23.306;2023-04-15T01:09:50;7.57;;;3.20;;
20118;SDS011;10220;42.716;23.306;2023-04-15T01:12:16;5.80;;;2.93;;
20118;SDS011;10220;42.716;23.306;2023-04-15T01:14:44;7.03;;;3.33;;
20118;SDS011;10220;42.716;23.306;2023-04-15T01:17:10;25.60;;;10.30;;
20118;SDS011;10220;42.716;23.306;2023-04-15T01:19:35;20.77;;;10.30;;
20118;SDS011;10220;42.716;23.306;2023-04-15T01:22:01;23.25;;;11.00;;
20118;SDS011;10220;42.716;23.306;2023-04-15T01:24:27;8.10;;;5.45;;
20118;SDS011;10220;42.716;23.306;2023-04-15T01:26:55;6.47;;;3.28;;
20118;SDS011;10220;42.716;23.306;2023-04-15T01:29:20;2.97;;;2.17;;
20118;SDS011;10220;42.716;23.306;2023-04-15T01:31:53;4.65;;;2.58;;
20118;SDS011;10220;42.716;23.306;2023-04-15T01:34:19;6.53;;;3.90;;
20118;SDS011;10220;42.716;23.306;2023-04-15T01:36:45;10.80;;;5.07;;
20118;SDS011;10220;42.716;23.306;2023-04-15T01:39:11;5.80;;;3.25;;
20118;SDS011;10220;42.716;23.306;2023-04-15T01:41:37;8.00;;;3.78;;
20118;SDS011;10220;42.716;23.306;2023-04-15T01:44:03;13.88;;;6.22;;
20118;SDS011;10220;42.716;23.306;2023-04-15T01:46:29;8.87;;;3.63;;
20118;SDS011;10220;42.716;23.306;2023-04-15T01:48:54;8.67;;;4.37;;
20118;SDS011;10220;42.716;23.306;2023-04-15T01:51:20;6.77;;;3.40;;
20118;SDS011;10220;42.716;23.306;2023-04-15T01:53:46;12.70;;;4.80;;
20118;SDS011;10220;42.716;23.306;2023-04-15T01:56:11;5.57;;;3.87;;
20118;SDS011;10220;42.716;23.306;2023-04-15T01:58:36;4.27;;;3.03;;
20118;SDS011;10220;42.716;23.306;2023-04-15T02:01:02;11.13;;;6.87;;
20118;SDS011;10220;42.716;23.306;2023-04-15T02:03:28;5.87;;;3.10;;
20118;SDS011;10220;42.716;23.306;2023-04-15T02:05:54;5.00;;;2.23;;
20118;SDS011;10220;42.716;23.306;2023-04-15T02:08:19;5.47;;;2.63;;
20118;SDS011;10220;42.716;23.306;2023-04-15T02:10:45;12.47;;;7.00;;
20118;SDS011;10220;42.716;23.306;2023-04-15T02:13:10;9.13;;;4.68;;
20118;SDS011;10220;42.716;23.306;2023-04-15T02:15:36;14.70;;;8.00;;
20118;SDS011;10220;42.716;23.306;2023-04-15T02:18:01;23.40;;;11.85;;
20118;SDS011;10220;42.716;23.306;2023-04-15T02:20:27;12.75;;;6.43;;
20118;SDS011;10220;42.716;23.306;2023-04-15T02:22:54;9.18;;;3.72;;
20118;SDS011;10220;42.716;23.306;2023-04-15T02:25:20;5.47;;;3.28;;
20118;SDS011;10220;42.716;23.306;2023-04-15T02:27:46;10.57;;;5.07;;
20118;SDS011;10220;42.716;23.306;2023-04-15T02:30:11;11.57;;;6.03;;
20118;SDS011;10220;42.716;23.306;2023-04-15T02:32:37;7.27;;;4.00;;
20118;SDS011;10220;42.716;23.306;2023-04-15T02:35:04;10.27;;;5.60;;
20118;SDS011;10220;42.716;23.306;2023-04-15T02:37:30;13.40;;;6.40;;
20118;SDS011;10220;42.716;23.306;2023-04-15T02:39:56;7.57;;;3.43;;
20118;SDS011;10220;42.716;23.306;2023-04-15T02:42:21;8.93;;;5.57;;
20118;SDS011;10220;42.716;23.306;2023-04-15T02:44:47;3.27;;;2.40;;
20118;SDS011;10220;42.716;23.306;2023-04-15T02:47:12;7.73;;;4.50;;
20118;SDS011;10220;42.716;23.306;2023-04-15T02:49:38;7.47;;;4.93;;
20118;SDS011;10220;42.716;23.306;2023-04-15T02:52:04;6.70;;;3.40;;
20118;SDS011;10220;42.716;23.306;2023-04-15T02:54:30;5.40;;;3.10;;
20118;SDS011;10220;42.716;23.306;2023-04-15T02:56:57;4.03;;;2.67;;
20118;SDS011;10220;42.716;23.306;2023-04-15T02:59:23;4.90;;;3.13;;
20118;SDS011;10220;42.716;23.306;2023-04-15T03:01:48;5.03;;;2.47;;
20118;SDS011;10220;42.716;23.306;2023-04-15T03:04:14;3.07;;;2.37;;
20118;SDS011;10220;42.716;23.306;2023-04-15T03:06:40;5.33;;;2.37;;
20118;SDS011;10220;42.716;23.306;2023-04-15T03:09:05;5.37;;;2.63;;
20118;SDS011;10220;42.716;23.306;2023-04-15T03:11:31;2.27;;;2.07;;
20118;SDS011;10220;42.716;23.306;2023-04-15T03:13:57;5.30;;;2.10;;
20118;SDS011;10220;42.716;23.306;2023-04-15T03:16:22;3.33;;;2.13;;
20118;SDS011;10220;42.716;23.306;2023-04-15T03:18:48;1.47;;;1.37;;
20118;SDS011;10220;42.716;23.306;2023-04-15T03:21:14;4.37;;;2.03;;
20118;SDS011;10220;42.716;23.306;2023-04-15T03:23:40;2.93;;;2.00;;
20118;SDS011;10220;42.716;23.306;2023-04-15T03:26:05;1.17;;;1.07;;
20118;SDS011;10220;42.716;23.306;2023-04-15T03:28:30;7.50;;;2.30;;
20118;SDS011;10220;42.716;23.306;2023-04-15T03:30:57;2.73;;;1.83;;
20118;SDS011;10220;42.716;23.306;2023-04-15T03:33:23;8.40;;;2.77;;
20118;SDS011;10220;42.716;23.306;2023-04-15T03:35:49;2.50;;;2.13;;
20118;SDS011;10220;42.716;23.306;2023-04-15T03:38:15;6.03;;;3.17;;
20118;SDS011;10220;42.716;23.306;2023-04-15T03:40:41;2.83;;;2.37;;
20118;SDS011;10220;42.716;23.306;2023-04-15T03:43:07;3.47;;;1.90;;
20118;SDS011;10220;42.716;23.306;2023-04-15T03:45:32;4.30;;;2.47;;
20118;SDS011;10220;42.716;23.306;2023-04-15T03:47:57;2.63;;;2.00;;
20118;SDS011;10220;42.716;23.306;2023-04-15T03:50:23;4.10;;;2.73;;
20118;SDS011;10220;42.716;23.306;2023-04-15T03:52:48;3.27;;;2.20;;
20118;SDS011;10220;42.716;23.306;2023-04-15T03:55:14;3.73;;;2.37;;
20118;SDS011;10220;42.716;23.306;2023-04-15T03:57:40;2.43;;;1.90;;
20118;SDS011;10220;42.716;23.306;2023-04-15T04:00:06;3.87;;;2.83;;
20118;SDS011;10220;42.716;23.306;2023-04-15T04:02:33;3.63;;;2.10;;
20118;SDS011;10220;42.716;23.306;2023-04-15T04:04:58;2.70;;;1.97;;
20118;SDS011;10220;42.716;23.306;2023-04-15T04:07:24;4.07;;;2.43;;
20118;SDS011;10220;42.716;23.306;2023-04-15T04:09:49;4.87;;;2.50;;
20118;SDS011;10220;42.716;23.306;2023-04-15T04:12:15;1.87;;;1.67;;
20118;SDS011;10220;42.716;23.306;2023-04-15T04:14:41;4.57;;;3.20;;
20118;SDS011;10220;42.716;23.306;2023-04-15T04:17:06;4.90;;;2.40;;
20118;SDS011;10220;42.716;23.306;2023-04-15T04:19:32;5.13;;;2.87;;
20118;SDS011;10220;42.716;23.306;2023-04-15T04:21:57;3.17;;;2.17;;
20118;SDS011;10220;42.716;23.306;2023-04-15T04:24:23;3.97;;;2.37;;
20118;SDS011;10220;42.716;23.306;2023-04-15T04:26:48;6.40;;;2.37;;
20118;SDS011;10220;42.716;23.306;2023-04-15T04:29:13;2.43;;;2.20;;
20118;SDS011;10220;42.716;23.306;2023-04-15T04:31:39;3.77;;;2.27;;
20118;SDS011;10220;42.716;23.306;2023-04-15T04:34:05;2.57;;;2.23;;
20118;SDS011;10220;42.716;23.306;2023-04-15T04:36:30;4.77;;;2.73;;
20118;SDS011;10220;42.716;23.306;2023-04-15T04:38:56;11.10;;;2.80;;
20118;SDS011;10220;42.716;23.306;2023-04-15T04:41:21;3.80;;;2.63;;
20118;SDS011;10220;42.716;23.306;2023-04-15T04:43:47;3.93;;;2.93;;
20118;SDS011;10220;42.716;23.306;2023-04-15T04:46:12;6.60;;;2.57;;
20118;SDS011;10220;42.716;23.306;2023-04-15T04:48:37;8.00;;;3.97;;
20118;SDS011;10220;42.716;23.306;2023-04-15T04:51:03;7.53;;;3.10;;
20118;SDS011;10220;42.716;23.306;2023-04-15T04:53:29;8.57;;;3.57;;
20118;SDS011;10220;42.716;23.306;2023-04-15T04:55:54;5.03;;;3.27;;
20118;SDS011;10220;42.716;23.306;2023-04-15T04:58:20;4.37;;;2.73;;
20118;SDS011;10220;42.716;23.306;2023-04-15T05:00:45;4.17;;;3.07;;
20118;SDS011;10220;42.716;23.306;2023-04-15T05:03:11;2.83;;;1.85;;
20118;SDS011;10220;42.716;23.306;2023-04-15T05:05:36;5.20;;;3.33;;
20118;SDS011;10220;42.716;23.306;2023-04-15T05:08:05;6.47;;;2.97;;
20118;SDS011;10220;42.716;23.306;2023-04-15T05:10:31;3.55;;;2.33;;
20118;SDS011;10220;42.716;23.306;2023-04-15T05:12:56;4.45;;;3.20;;
20118;SDS011;10220;42.716;23.306;2023-04-15T05:15:22;6.25;;;3.45;;
20118;SDS011;10220;42.716;23.306;2023-04-15T05:17:47;3.88;;;2.90;;
20118;SDS011;10220;42.716;23.306;2023-04-15T05:20:13;7.88;;;3.97;;
20118;SDS011;10220;42.716;23.306;2023-04-15T05:22:38;7.70;;;3.78;;
20118;SDS011;10220;42.716;23.306;2023-04-15T05:25:04;5.38;;;3.42;;
20118;SDS011;10220;42.716;23.306;2023-04-15T05:27:30;5.57;;;3.00;;
20118;SDS011;10220;42.716;23.306;2023-04-15T05:29:58;6.72;;;3.20;;
20118;SDS011;10220;42.716;23.306;2023-04-15T05:32:23;4.68;;;2.58;;
20118;SDS011;10220;42.716;23.306;2023-04-15T05:34:48;5.28;;;2.92;;
20118;SDS011;10220;42.716;23.306;2023-04-15T05:37:14;4.80;;;2.90;;
20118;SDS011;10220;42.716;23.306;2023-04-15T05:39:39;3.50;;;2.20;;
20118;SDS011;10220;42.716;23.306;2023-04-15T05:42:06;4.85;;;2.63;;
20118;SDS011;10220;42.716;23.306;2023-04-15T05:44:31;3.00;;;2.10;;
20118;SDS011;10220;42.716;23.306;2023-04-15T05:46:57;3.75;;;2.22;;
20118;SDS011;10220;42.716;23.306;2023-04-15T05:49:22;3.22;;;2.53;;
20118;SDS011;10220;42.716;23.306;2023-04-15T05:51:48;6.82;;;2.90;;
20118;SDS011;10220;42.716;23.306;2023-04-15T05:54:13;3.63;;;2.35;;
20118;SDS011;10220;42.716;23.306;2023-04-15T05:56:39;3.97;;;2.53;;
20118;SDS011;10220;42.716;23.306;2023-04-15T05:59:04;5.88;;;2.60;;
20118;SDS011;10220;42.716;23.306;2023-04-15T06:01:30;4.10;;;2.08;;
20118;SDS011;10220;42.716;23.306;2023-04-15T06:03:57;9.65;;;3.20;;
20118;SDS011;10220;42.716;23.306;2023-04-15T06:06:23;4.50;;;2.53;;
20118;SDS011;10220;42.716;23.306;2023-04-15T06:08:48;4.32;;;2.47;;
20118;SDS011;10220;42.716;23.306;2023-04-15T06:11:13;2.58;;;1.80;;
20118;SDS011;10220;42.716;23.306;2023-04-15T06:13:39;3.83;;;3.10;;
20118;SDS011;10220;42.716;23.306;2023-04-15T06:16:05;6.50;;;3.53;;
20118;SDS011;10220;42.716;23.306;2023-04-15T06:18:30;5.38;;;2.75;;
20118;SDS011;10220;42.716;23.306;2023-04-15T06:20:56;5.18;;;2.72;;
20118;SDS011;10220;42.716;23.306;2023-04-15T06:23:21;6.28;;;3.70;;
20118;SDS011;10220;42.716;23.306;2023-04-15T06:25:47;4.50;;;2.83;;
20118;SDS011;10220;42.716;23.306;2023-04-15T06:28:12;4.22;;;2.65;;
20118;SDS011;10220;42.716;23.306;2023-04-15T06:30:37;5.40;;;3.30;;
20118;SDS011;10220;42.716;23.306;2023-04-15T06:33:04;4.55;;;3.05;;
20118;SDS011;10220;42.716;23.306;2023-04-15T06:35:30;6.47;;;3.38;;
20118;SDS011;10220;42.716;23.306;2023-04-15T06:37:56;5.82;;;2.20;;
20118;SDS011;10220;42.716;23.306;2023-04-15T06:40:21;5.15;;;2.42;;
20118;SDS011;10220;42.716;23.306;2023-04-15T06:42:46;3.88;;;2.50;;
20118;SDS011;10220;42.716;23.306;2023-04-15T06:45:12;5.05;;;2.80;;
20118;SDS011;10220;42.716;23.306;2023-04-15T06:47:38;6.65;;;2.85;;
20118;SDS011;10220;42.716;23.306;2023-04-15T06:50:03;6.63;;;2.95;;
20118;SDS011;10220;42.716;23.306;2023-04-15T06:52:29;6.85;;;3.22;;
20118;SDS011;10220;42.716;23.306;2023-04-15T06:54:55;3.60;;;2.72;;
20118;SDS011;10220;42.716;23.306;2023-04-15T06:57:21;3.90;;;2.85;;
20118;SDS011;10220;42.716;23.306;2023-04-15T06:59:46;5.38;;;2.53;;
20118;SDS011;10220;42.716;23.306;2023-04-15T07:02:12;4.68;;;2.42;;
20118;SDS011;10220;42.716;23.306;2023-04-15T07:04:38;6.05;;;2.42;;
20118;SDS011;10220;42.716;23.306;2023-04-15T07:07:04;4.55;;;2.88;;
20118;SDS011;10220;42.716;23.306;2023-04-15T07:09:30;5.53;;;3.35;;
20118;SDS011;10220;42.716;23.306;2023-04-15T07:11:56;6.22;;;2.70;;
20118;SDS011;10220;42.716;23.306;2023-04-15T07:14:21;6.45;;;3.05;;
20118;SDS011;10220;42.716;23.306;2023-04-15T07:16:47;3.58;;;2.33;;
20118;SDS011;10220;42.716;23.306;2023-04-15T07:19:15;3.00;;;1.73;;
20118;SDS011;10220;42.716;23.306;2023-04-15T07:21:40;4.05;;;1.60;;
20118;SDS011;10220;42.716;23.306;2023-04-15T07:24:12;4.93;;;2.33;;
20118;SDS011;10220;42.716;23.306;2023-04-15T07:26:43;6.25;;;1.88;;
20118;SDS011;10220;42.716;23.306;2023-04-15T07:29:09;3.42;;;1.30;;
20118;SDS011;10220;42.716;23.306;2023-04-15T07:31:35;1.52;;;1.10;;
20118;SDS011;10220;42.716;23.306;2023-04-15T07:34:03;2.25;;;1.40;;
20118;SDS011;10220;42.716;23.306;2023-04-15T07:36:31;5.80;;;1.88;;
20118;SDS011;10220;42.716;23.306;2023-04-15T07:38:56;3.70;;;1.92;;
20118;SDS011;10220;42.716;23.306;2023-04-15T07:41:22;2.72;;;1.63;;
20118;SDS011;10220;42.716;23.306;2023-04-15T07:43:48;4.93;;;2.58;;
20118;SDS011;10220;42.716;23.306;2023-04-15T07:46:14;1.88;;;1.35;;
20118;SDS011;10220;42.716;23.306;2023-04-15T07:48:40;3.45;;;1.90;;
20118;SDS011;10220;42.716;23.306;2023-04-15T07:51:05;4.13;;;1.92;;
20118;SDS011;10220;42.716;23.306;2023-04-15T07:53:31;1.85;;;1.27;;
20118;SDS011;10220;42.716;23.306;2023-04-15T07:55:57;3.90;;;1.60;;
20118;SDS011;10220;42.716;23.306;2023-04-15T07:58:23;3.38;;;1.42;;
20118;SDS011;10220;42.716;23.306;2023-04-15T08:00:48;4.30;;;1.50;;
20118;SDS011;10220;42.716;23.306;2023-04-15T08:03:14;3.53;;;1.80;;
20118;SDS011;10220;42.716;23.306;2023-04-15T08:05:40;2.20;;;1.27;;
20118;SDS011;10220;42.716;23.306;2023-04-15T08:08:07;2.28;;;1.20;;
20118;SDS011;10220;42.716;23.306;2023-04-15T08:10:32;4.20;;;0.77;;
20118;SDS011;10220;42.716;23.306;2023-04-15T08:12:58;2.13;;;1.42;;
20118;SDS011;10220;42.716;23.306;2023-04-15T08:15:24;3.13;;;0.85;;
20118;SDS011;10220;42.716;23.306;2023-04-15T08:17:49;0.73;;;0.50;;
20118;SDS011;10220;42.716;23.306;2023-04-15T08:20:15;1.17;;;0.52;;
20118;SDS011;10220;42.716;23.306;2023-04-15T08:22:40;0.75;;;0.75;;
20118;SDS011;10220;42.716;23.306;2023-04-15T08:25:06;1.33;;;0.70;;
20118;SDS011;10220;42.716;23.306;2023-04-15T08:27:33;0.65;;;0.50;;
20118;SDS011;10220;42.716;23.306;2023-04-15T08:29:58;0.30;;;0.30;;
20118;SDS011;10220;42.716;23.306;2023-04-15T08:32:24;0.63;;;0.43;;
20118;SDS011;10220;42.716;23.306;2023-04-15T08:34:50;1.95;;;0.40;;
20118;SDS011;10220;42.716;23.306;2023-04-15T08:37:16;2.88;;;0.52;;
20118;SDS011;10220;42.716;23.306;2023-04-15T08:39:41;0.57;;;0.40;;
20118;SDS011;10220;42.716;23.306;2023-04-15T08:42:10;0.90;;;0.63;;
20118;SDS011;10220;42.716;23.306;2023-04-15T08:44:39;0.60;;;0.60;;
20118;SDS011;10220;42.716;23.306;2023-04-15T08:47:06;1.60;;;0.55;;
20118;SDS011;10220;42.716;23.306;2023-04-15T08:49:34;1.50;;;0.90;;
20118;SDS011;10220;42.716;23.306;2023-04-15T08:52:03;2.72;;;0.68;;
20118;SDS011;10220;42.716;23.306;2023-04-15T08:54:29;1.20;;;0.75;;
20118;SDS011;10220;42.716;23.306;2023-04-15T08:56:56;0.60;;;0.40;;
20118;SDS011;10220;42.716;23.306;2023-04-15T08:59:22;0.75;;;0.30;;
20118;SDS011;10220;42.716;23.306;2023-04-15T09:01:51;0.40;;;0.38;;
20118;SDS011;10220;42.716;23.306;2023-04-15T09:04:17;2.33;;;0.57;;
20118;SDS011;10220;42.716;23.306;2023-04-15T09:06:42;3.30;;;0.93;;
20118;SDS011;10220;42.716;23.306;2023-04-15T09:09:08;1.60;;;0.63;;
20118;SDS011;10220;42.716;23.306;2023-04-15T09:11:33;0.70;;;0.47;;
20118;SDS011;10220;42.716;23.306;2023-04-15T09:13:59;0.90;;;0.40;;
20118;SDS011;10220;42.716;23.306;2023-04-15T09:16:25;0.90;;;0.70;;
20118;SDS011;10220;42.716;23.306;2023-04-15T09:18:50;0.63;;;0.60;;
20118;SDS011;10220;42.716;23.306;2023-04-15T09:21:16;0.95;;;0.40;;
20118;SDS011;10220;42.716;23.306;2023-04-15T09:23:58;1.75;;;0.70;;
20118;SDS011;10220;42.716;23.306;2023-04-15T09:26:43;0.77;;;0.50;;
20118;SDS011;10220;42.716;23.306;2023-04-15T09:29:09;1.10;;;0.45;;
20118;SDS011;10220;42.716;23.306;2023-04-15T09:31:38;1.00;;;0.80;;
20118;SDS011;10220;42.716;23.306;2023-04-15T09:34:04;0.75;;;0.75;;
20118;SDS011;10220;42.716;23.306;2023-04-15T09:39:21;2.05;;;0.70;;
20118;SDS011;10220;42.716;23.306;2023-04-15T09:41:46;3.75;;;0.80;;
20118;SDS011;10220;42.716;23.306;2023-04-15T09:44:27;1.55;;;0.73;;
20118;SDS011;10220;42.716;23.306;2023-04-15T09:46:53;2.15;;;1.20;;
20118;SDS011;10220;42.716;23.306;2023-04-15T09:49:18;4.45;;;1.50;;
20118;SDS011;10220;42.716;23.306;2023-04-15T09:51:44;0.65;;;0.65;;
20118;SDS011;10220;42.716;23.306;2023-04-15T09:54:11;1.35;;;1.25;;
20118;SDS011;10220;42.716;23.306;2023-04-15T09:56:37;1.15;;;0.77;;
20118;SDS011;10220;42.716;23.306;2023-04-15T09:59:05;3.40;;;1.25;;
20118;SDS011;10220;42.716;23.306;2023-04-15T10:01:31;3.90;;;1.52;;
20118;SDS011;10220;42.716;23.306;2023-04-15T10:03:57;1.05;;;0.88;;
20118;SDS011;10220;42.716;23.306;2023-04-15T10:06:25;1.42;;;0.93;;
20118;SDS011;10220;42.716;23.306;2023-04-15T10:08:51;2.25;;;0.80;;
20118;SDS011;10220;42.716;23.306;2023-04-15T10:11:18;0.80;;;0.80;;
20118;SDS011;10220;42.716;23.306;2023-04-15T10:13:45;1.95;;;1.38;;
20118;SDS011;10220;42.716;23.306;2023-04-15T10:16:14;1.05;;;0.80;;
20118;SDS011;10220;42.716;23.306;2023-04-15T10:18:44;1.00;;;1.00;;
20118;SDS011;10220;42.716;23.306;2023-04-15T10:21:11;1.92;;;1.00;;
20118;SDS011;10220;42.716;23.306;2023-04-15T10:23:43;1.48;;;0.90;;
20118;SDS011;10220;42.716;23.306;2023-04-15T10:26:10;1.13;;;0.80;;
20118;SDS011;10220;42.716;23.306;2023-04-15T10:28:38;0.70;;;0.70;;
20118;SDS011;10220;42.716;23.306;2023-04-15T10:31:07;0.85;;;0.70;;
20118;SDS011;10220;42.716;23.306;2023-04-15T10:33:35;0.85;;;0.85;;
20118;SDS011;10220;42.716;23.306;2023-04-15T10:36:02;3.50;;;0.68;;
20118;SDS011;10220;42.716;23.306;2023-04-15T10:43:55;0.82;;;0.38;;
20118;SDS011;10220;42.716;23.306;2023-04-15T10:46:35;1.08;;;0.40;;
20118;SDS011;10220;42.716;23.306;2023-04-15T10:49:12;1.00;;;0.77;;
20118;SDS011;10220;42.716;23.306;2023-04-15T10:51:39;0.82;;;0.50;;
20118;SDS011;10220;42.716;23.306;2023-04-15T10:54:13;1.30;;;0.70;;
20118;SDS011;10220;42.716;23.306;2023-04-15T10:56:44;0.47;;;0.47;;
20118;SDS011;10220;42.716;23.306;2023-04-15T10:59:10;0.77;;;0.70;;
20118;SDS011;10220;42.716;23.306;2023-04-15T11:02:00;1.00;;;0.55;;
20118;SDS011;10220;42.716;23.306;2023-04-15T11:10:54;0.30;;;0.30;;
20118;SDS011;10220;42.716;23.306;2023-04-15T11:20:46;0.98;;;0.60;;
20118;SDS011;10220;42.716;23.306;2023-04-15T11:23:14;1.40;;;0.47;;
20118;SDS011;10220;42.716;23.306;2023-04-15T11:25:41;2.25;;;0.70;;
20118;SDS011;10220;42.716;23.306;2023-04-15T11:28:07;3.60;;;0.55;;
20118;SDS011;10220;42.716;23.306;2023-04-15T11:30:34;2.13;;;0.70;;
20118;SDS011;10220;42.716;23.306;2023-04-15T11:33:01;0.70;;;0.50;;
20118;SDS011;10220;42.716;23.306;2023-04-15T11:35:28;0.60;;;0.50;;
20118;SDS011;10220;42.716;23.306;2023-04-15T11:37:54;0.90;;;0.45;;
20118;SDS011;10220;42.716;23.306;2023-04-15T11:40:23;0.40;;;0.40;;
20118;SDS011;10220;42.716;23.306;2023-04-15T11:43:10;1.42;;;0.65;;
20118;SDS011;10220;42.716;23.306;2023-04-15T11:45:36;1.08;;;0.77;;
20118;SDS011;10220;42.716;23.306;2023-04-15T11:48:12;1.17;;;0.88;;
20118;SDS011;10220;42.716;23.306;2023-04-15T11:50:38;0.90;;;0.60;;
20118;SDS011;10220;42.716;23.306;2023-04-15T11:53:11;0.73;;;0.50;;
20118;SDS011;10220;42.716;23.306;2023-04-15T11:55:44;0.75;;;0.60;;
20118;SDS011;10220;42.716;23.306;2023-04-15T11:58:21;0.75;;;0.70;;
20118;SDS011;10220;42.716;23.306;2023-04-15T12:00:52;0.57;;;0.57;;
20118;SDS011;10220;42.716;23.306;2023-04-15T12:03:26;3.70;;;0.70;;
20118;SDS011;10220;42.716;23.306;2023-04-15T12:13:55;0.90;;;0.73;;
20118;SDS011;10220;42.716;23.306;2023-04-15T12:16:23;0.85;;;0.50;;
20118;SDS011;10220;42.716;23.306;2023-04-15T12:18:52;0.50;;;0.50;;
20118;SDS011;10220;42.716;23.306;2023-04-15T12:21:23;1.08;;;0.60;;
20118;SDS011;10220;42.716;23.306;2023-04-15T12:23:54;3.90;;;0.70;;
20118;SDS011;10220;42.716;23.306;2023-04-15T12:26:25;0.50;;;0.50;;
20118;SDS011;10220;42.716;23.306;2023-04-15T12:29:05;0.75;;;0.55;;
20118;SDS011;10220;42.716;23.306;2023-04-15T12:31:33;0.50;;;0.50;;
20118;SDS011;10220;42.716;23.306;2023-04-15T12:34:00;0.40;;;0.40;;
20118;SDS011;10220;42.716;23.306;2023-04-15T12:36:27;0.70;;;0.70;;
20118;SDS011;10220;42.716;23.306;2023-04-15T12:38:54;0.63;;;0.57;;
20118;SDS011;10220;42.716;23.306;2023-04-15T12:41:20;1.23;;;0.50;;
20118;SDS011;10220;42.716;23.306;2023-04-15T12:43:46;0.57;;;0.35;;
20118;SDS011;10220;42.716;23.306;2023-04-15T12:46:12;3.58;;;0.60;;
20118;SDS011;10220;42.716;23.306;2023-04-15T12:48:37;0.40;;;0.40;;
20118;SDS011;10220;42.716;23.306;2023-04-15T12:51:04;0.30;;;0.30;;
20118;SDS011;10220;42.716;23.306;2023-04-15T12:53:30;1.58;;;0.40;;
20118;SDS011;10220;42.716;23.306;2023-04-15T12:55:55;3.05;;;0.50;;
20118;SDS011;10220;42.716;23.306;2023-04-15T12:58:33;0.65;;;0.43;;
20118;SDS011;10220;42.716;23.306;2023-04-15T13:00:58;0.60;;;0.60;;
20118;SDS011;10220;42.716;23.306;2023-04-15T13:03:24;1.33;;;0.60;;
20118;SDS011;10220;42.716;23.306;2023-04-15T13:05:50;0.80;;;0.45;;
20118;SDS011;10220;42.716;23.306;2023-04-15T13:08:16;0.40;;;0.40;;
20118;SDS011;10220;42.716;23.306;2023-04-15T13:10:42;0.73;;;0.70;;
20118;SDS011;10220;42.716;23.306;2023-04-15T13:13:07;1.08;;;0.35;;
20118;SDS011;10220;42.716;23.306;2023-04-15T13:15:33;0.60;;;0.60;;
20118;SDS011;10220;42.716;23.306;2023-04-15T13:17:59;0.73;;;0.50;;
20118;SDS011;10220;42.716;23.306;2023-04-15T13:20:25;0.43;;;0.43;;
20118;SDS011;10220;42.716;23.306;2023-04-15T13:22:53;1.15;;;0.50;;
20118;SDS011;10220;42.716;23.306;2023-04-15T13:25:18;0.60;;;0.57;;
20118;SDS011;10220;42.716;23.306;2023-04-15T13:27:44;0.50;;;0.50;;
20118;SDS011;10220;42.716;23.306;2023-04-15T13:30:09;0.60;;;0.45;;
20118;SDS011;10220;42.716;23.306;2023-04-15T13:32:35;1.20;;;0.45;;
20118;SDS011;10220;42.716;23.306;2023-04-15T13:35:01;0.73;;;0.60;;
20118;SDS011;10220;42.716;23.306;2023-04-15T13:37:27;0.60;;;0.60;;
20118;SDS011;10220;42.716;23.306;2023-04-15T13:39:53;1.00;;;0.60;;
20118;SDS011;10220;42.716;23.306;2023-04-15T13:42:19;0.50;;;0.50;;
20118;SDS011;10220;42.716;23.306;2023-04-15T13:44:45;1.10;;;1.00;;
20118;SDS011;10220;42.716;23.306;2023-04-15T13:47:11;0.50;;;0.40;;
20118;SDS011;10220;42.716;23.306;2023-04-15T13:49:37;0.50;;;0.50;;
20118;SDS011;10220;42.716;23.306;2023-04-15T13:52:02;1.75;;;0.40;;
20118;SDS011;10220;42.716;23.306;2023-04-15T13:54:28;0.60;;;0.38;;
20118;SDS011;10220;42.716;23.306;2023-04-15T13:56:53;2.05;;;0.40;;
20118;SDS011;10220;42.716;23.306;2023-04-15T13:59:20;0.43;;;0.30;;
20118;SDS011;10220;42.716;23.306;2023-04-15T14:01:45;0.95;;;0.25;;
20118;SDS011;10220;42.716;23.306;2023-04-15T14:04:11;0.70;;;0.47;;
20118;SDS011;10220;42.716;23.306;2023-04-15T14:06:37;1.38;;;0.50;;
20118;SDS011;10220;42.716;23.306;2023-04-15T14:09:02;1.05;;;0.43;;
20118;SDS011;10220;42.716;23.306;2023-04-15T14:11:28;0.32;;;0.30;;
20118;SDS011;10220;42.716;23.306;2023-04-15T14:13:54;1.45;;;0.43;;
20118;SDS011;10220;42.716;23.306;2023-04-15T14:16:19;0.50;;;0.30;;
20118;SDS011;10220;42.716;23.306;2023-04-15T14:18:44;0.65;;;0.28;;
20118;SDS011;10220;42.716;23.306;2023-04-15T14:21:10;2.08;;;0.40;;
20118;SDS011;10220;42.716;23.306;2023-04-15T14:23:35;0.80;;;0.75;;
20118;SDS011;10220;42.716;23.306;2023-04-15T14:26:01;5.15;;;2.20;;
20118;SDS011;10220;42.716;23.306;2023-04-15T14:28:26;2.20;;;1.02;;
20118;SDS011;10220;42.716;23.306;2023-04-15T14:30:51;0.60;;;0.50;;
20118;SDS011;10220;42.716;23.306;2023-04-15T14:33:17;0.68;;;0.50;;
20118;SDS011;10220;42.716;23.306;2023-04-15T14:35:43;0.57;;;0.55;;
20118;SDS011;10220;42.716;23.306;2023-04-15T14:38:08;0.50;;;0.50;;
20118;SDS011;10220;42.716;23.306;2023-04-15T14:40:35;2.08;;;0.68;;
20118;SDS011;10220;42.716;23.306;2023-04-15T14:43:01;0.93;;;0.73;;
20118;SDS011;10220;42.716;23.306;2023-04-15T14:45:26;0.63;;;0.63;;
20118;SDS011;10220;42.716;23.306;2023-04-15T14:47:52;0.95;;;0.85;;
20118;SDS011;10220;42.716;23.306;2023-04-15T14:50:17;0.75;;;0.75;;
20118;SDS011;10220;42.716;23.306;2023-04-15T14:52:43;1.33;;;0.75;;
20118;SDS011;10220;42.716;23.306;2023-04-15T14:55:09;1.08;;;0.50;;
20118;SDS011;10220;42.716;23.306;2023-04-15T14:57:36;1.98;;;0.60;;
20118;SDS011;10220;42.716;23.306;2023-04-15T15:00:02;0.32;;;0.32;;